SCC: Mid-Ohio: GS qualifying times

Pos Num Class Team Time Gap To 1st Speed --- --- ----- ------------------------------ ---------- ------- ------- ------- 1. 97 GS Turner Motorsport 1:33.751 86.706 2. 99...

Pos Num Class Team                                 Time     Gap  To 1st   Speed
--- --- ----- ------------------------------ ---------- ------- ------- -------
 1.  97 GS    Turner Motorsport                1:33.751                  86.706
 2.  99 GS    Automatic Racing                 1:33.799   0.048   0.048  86.662
 3.  79 GS    Kinetic Motorsports              1:33.944   0.145   0.193  86.528
 4.  52 GS    Rehagen Racing                   1:34.410   0.466   0.659  86.101
 5.  37 GS    JBS Racing                       1:34.644   0.234   0.893  85.888
 6.  90 GS    Automatic Racing                 1:34.689   0.045   0.938  85.847
 7.  09 GS    Automatic Racing                 1:34.708   0.019   0.957  85.830
 8.  96 GS    Turner Motorsport                1:34.846   0.138   1.095  85.705
 9.  91 GS    Automatic Racing                 1:34.881   0.035   1.130  85.674
10.  28 GS    Fall-Line Motorsports            1:34.911   0.030   1.160  85.647
11.   5 GS    Blackforest Motorsports          1:34.915   0.004   1.164  85.643
12.  55 GS    Hyper Sport                      1:34.928   0.013   1.177  85.631
13.  41 GS    TRG                              1:34.947   0.019   1.196  85.614
14.  78 GS    Kinetic Motorsports              1:34.959   0.012   1.208  85.603
15.  17 GS    Team Centurion                   1:35.146   0.187   1.395  85.435
16.  38 GS    BGB Motorsports                  1:35.165   0.019   1.414  85.418
17.  80 GS    Kinetic Motorsports              1:35.225   0.060   1.474  85.364
18.  83 GS    BGB Motorsports                  1:35.237   0.012   1.486  85.353
19.  16 GS    Champion Motorsports             1:35.248   0.011   1.497  85.344
20.  05 GS    Team Sahlen                      1:35.301   0.053   1.550  85.296
21.  33 GS    Playboy Racing                   1:35.340   0.039   1.589  85.261
22.  46 GS    Fall-Line Motorsports            1:35.413   0.073   1.662  85.196
23.  07 GS    Cardiosport Racing               1:35.443   0.030   1.692  85.169
24. 154 GS    Rehagen Racing                   1:35.458   0.015   1.707  85.156
25.  25 GS    Fiorano/C-MAX Racing             1:35.506   0.048   1.755  85.113
26.  59 GS    Rehagen Racing                   1:35.606   0.100   1.855  85.024
27.  89 GS    Ranger Sports Racing             1:35.649   0.043   1.898  84.986
28.  43 GS    ASC Motorsports                  1:35.702   0.053   1.951  84.939
29.  88 GS    Ranger Sports Racing             1:35.728   0.026   1.977  84.916
30.   4 GS    Blackforest Motorsports          1:36.003   0.275   2.252  84.672
31.  04 GS    Team Sahlen                      1:36.322   0.319   2.571  84.392
32.  40 GS    TRG                              1:36.333   0.011   2.582  84.382
33. 137 GS    JBS Motorsports                  1:36.381   0.048   2.630  84.340
34.  54 GS    Hyper Sport                      1:36.440   0.059   2.689  84.289
35.  42 GS    TRG                              1:36.620   0.180   2.869  84.132
36.  87 GS    Ranger Sports Racing             1:37.113   0.493   3.362  83.705
37.  49 GS    Marcus Motorsports               1:37.349   0.236   3.598  83.502
38.  20 GS    Horsepower Ranch                  No Time
39.  26 GS    Fiorano/C-MAX Racing              No Time
40.  39 GS    TRG                               No Time

Be part of something big

Write a comment
Show comments
About this article
Series Grand-Am
Teams Kinetic Motorsports , Rehagen Racing , Turner Motorsport , Team Sahlen , Automatic Racing , Fall-Line Motorsports